createdAt,value
2022-09-01T00:00:03.334Z,100
2022-09-01T00:01:02.356Z,100
2022-09-01T00:02:02.446Z,100
2022-09-01T00:03:02.526Z,100
2022-09-01T00:04:02.514Z,100
2022-09-01T00:05:02.482Z,100
2022-09-01T00:06:02.283Z,100
2022-09-01T00:07:02.820Z,100
2022-09-01T00:08:01.634Z,100
2022-09-01T00:09:02.601Z,100
2022-09-01T00:10:02.418Z,100
2022-09-01T00:11:02.494Z,100
2022-09-01T00:12:02.319Z,100
2022-09-01T00:13:02.292Z,100
2022-09-01T00:14:02.115Z,100
2022-09-01T00:15:02.043Z,100
2022-09-01T00:16:02.557Z,100
2022-09-01T00:17:02.567Z,100
2022-09-01T00:18:02.388Z,100
2022-09-01T00:19:02.382Z,100
2022-09-01T00:20:02.273Z,100
2022-09-01T00:21:02.079Z,100
2022-09-01T00:22:02.069Z,100
2022-09-01T00:23:01.883Z,100
2022-09-01T00:24:01.799Z,100
2022-09-01T00:25:01.591Z,100
2022-09-01T00:26:02.664Z,100
2022-09-01T00:27:02.509Z,100
2022-09-01T00:28:02.454Z,100
2022-09-01T00:29:02.258Z,100
2022-09-01T00:30:02.275Z,100
2022-09-01T00:31:02.438Z,100
2022-09-01T00:32:02.366Z,100
2022-09-01T00:33:02.350Z,100
2022-09-01T00:34:02.163Z,100
2022-09-01T00:35:02.093Z,100
2022-09-01T00:36:02.133Z,100
2022-09-01T00:37:01.971Z,100
2022-09-01T00:38:01.900Z,100
2022-09-01T00:39:01.817Z,100
2022-09-01T00:40:01.605Z,100
2022-09-01T00:41:02.610Z,100
2022-09-01T00:42:02.472Z,100
2022-09-01T00:43:02.463Z,100
2022-09-01T00:44:02.313Z,100
2022-09-01T00:45:03.101Z,100
2022-09-01T00:46:02.332Z,100
2022-09-01T00:47:02.195Z,100
2022-09-01T00:48:04.352Z,100
2022-09-01T00:49:02.329Z,100
2022-09-01T00:50:02.141Z,100
2022-09-01T00:51:02.058Z,100
2022-09-01T00:52:01.893Z,100
2022-09-01T00:53:02.454Z,100
2022-09-01T00:54:02.452Z,100
2022-09-01T00:55:02.427Z,100
2022-09-01T00:56:02.307Z,100
2022-09-01T00:57:02.102Z,100
2022-09-01T00:58:02.076Z,100
2022-09-01T00:59:02.027Z,100
2022-09-01T01:00:01.821Z,100
2022-09-01T01:01:01.984Z,100
2022-09-01T01:02:02.006Z,100
2022-09-01T01:03:01.961Z,100
2022-09-01T01:04:02.077Z,100
2022-09-01T01:05:02.056Z,100
2022-09-01T01:06:01.932Z,100
2022-09-01T01:07:01.936Z,100
2022-09-01T01:08:01.851Z,100
2022-09-01T01:09:01.770Z,100
2022-09-01T01:10:01.575Z,100
2022-09-01T01:11:02.586Z,100
2022-09-01T01:12:02.414Z,100
2022-09-01T01:13:02.387Z,100
2022-09-01T01:14:02.312Z,100
2022-09-01T01:15:02.132Z,100
2022-09-01T01:16:02.132Z,100
2022-09-01T01:17:02.181Z,100
2022-09-01T01:18:02.078Z,100
2022-09-01T01:19:01.985Z,100
2022-09-01T01:20:01.964Z,100
2022-09-01T01:21:01.782Z,100
2022-09-01T01:22:01.812Z,100
2022-09-01T01:23:01.645Z,100
2022-09-01T01:24:02.619Z,100
2022-09-01T01:25:02.443Z,100
2022-09-01T01:26:02.405Z,100
2022-09-01T01:27:02.314Z,100
2022-09-01T01:28:02.083Z,100
2022-09-01T01:29:02.055Z,100
2022-09-01T01:30:01.875Z,100
2022-09-01T01:31:02.319Z,100
2022-09-01T01:32:02.305Z,100
2022-09-01T01:33:03.747Z,100
2022-09-01T01:34:02.045Z,100
2022-09-01T01:35:01.995Z,100
2022-09-01T01:36:01.840Z,100
2022-09-01T01:37:01.782Z,100
2022-09-01T01:38:01.601Z,100
2022-09-01T01:39:02.575Z,100
2022-09-01T01:40:02.510Z,100
2022-09-01T01:41:02.509Z,100
2022-09-01T01:42:02.337Z,100
2022-09-01T01:43:02.316Z,100
2022-09-01T01:44:02.140Z,100
2022-09-01T01:45:02.120Z,100
2022-09-01T01:46:02.123Z,100
2022-09-01T01:47:02.400Z,100
2022-09-01T01:48:02.341Z,100
2022-09-01T01:49:02.154Z,100
2022-09-01T01:50:02.107Z,100
2022-09-01T01:51:01.921Z,100
2022-09-01T01:52:01.892Z,100
2022-09-01T01:53:01.670Z,100
2022-09-01T01:54:02.636Z,100
2022-09-01T01:55:05.554Z,100
2022-09-01T01:56:02.402Z,100
2022-09-01T01:57:02.383Z,100
2022-09-01T01:58:02.311Z,100
2022-09-01T01:59:02.102Z,100
2022-09-01T02:00:02.100Z,100
2022-09-01T02:01:01.736Z,100
2022-09-01T02:02:01.870Z,100
2022-09-01T02:03:01.815Z,100
2022-09-01T02:04:01.742Z,100
2022-09-01T02:05:01.514Z,100
2022-09-01T02:06:02.534Z,100
2022-09-01T02:07:02.351Z,100
2022-09-01T02:08:02.312Z,100
2022-09-01T02:09:02.284Z,100
2022-09-01T02:10:02.098Z,100
2022-09-01T02:11:02.068Z,100
2022-09-01T02:12:02.530Z,100
2022-09-01T02:13:02.369Z,100
2022-09-01T02:14:02.345Z,100
2022-09-01T02:15:02.282Z,100
2022-09-01T02:16:01.862Z,100
2022-09-01T02:17:01.985Z,100
2022-09-01T02:18:05.762Z,100
2022-09-01T02:19:01.615Z,100
2022-09-01T02:20:02.577Z,100
2022-09-01T02:21:02.415Z,100
2022-09-01T02:22:02.353Z,100
2022-09-01T02:23:02.414Z,100
2022-09-01T02:24:02.285Z,100
2022-09-01T02:25:02.248Z,100
2022-09-01T02:26:17.794Z,100
2022-09-01T02:27:01.844Z,100
2022-09-01T02:28:01.761Z,100
2022-09-01T02:29:01.606Z,100
2022-09-01T02:30:02.568Z,100
2022-09-01T02:31:02.755Z,100
2022-09-01T02:32:01.817Z,100
2022-09-01T02:33:02.412Z,100
2022-09-01T02:34:02.262Z,100
2022-09-01T02:35:02.196Z,100
2022-09-01T02:36:02.021Z,100
2022-09-01T02:37:01.916Z,100
2022-09-01T02:38:01.881Z,100
2022-09-01T02:39:01.677Z,100
2022-09-01T02:40:02.814Z,100
2022-09-01T02:41:01.705Z,100
2022-09-01T02:42:01.793Z,100
2022-09-01T02:43:01.609Z,100
2022-09-01T02:44:02.918Z,100
2022-09-01T02:45:02.954Z,100
2022-09-01T02:46:02.630Z,100
2022-09-01T02:47:01.879Z,100
2022-09-01T02:48:02.425Z,100
2022-09-01T02:49:02.523Z,100
2022-09-01T02:50:02.566Z,100
2022-09-01T02:51:02.467Z,100
2022-09-01T02:52:02.436Z,100
2022-09-01T02:53:04.368Z,100
2022-09-01T02:54:02.205Z,100
2022-09-01T02:55:02.152Z,100
2022-09-01T02:56:01.978Z,100
2022-09-01T02:57:01.936Z,100
2022-09-01T02:58:01.840Z,100
2022-09-01T02:59:01.638Z,100
2022-09-01T03:00:02.619Z,100
2022-09-01T03:01:03.372Z,100
2022-09-01T03:02:02.347Z,100
2022-09-01T03:03:02.278Z,100
2022-09-01T03:04:02.101Z,100
2022-09-01T03:05:02.265Z,100
2022-09-01T03:06:02.503Z,100
2022-09-01T03:07:02.299Z,100
2022-09-01T03:08:02.282Z,100
2022-09-01T03:09:02.102Z,100
2022-09-01T03:10:02.016Z,100
2022-09-01T03:11:01.967Z,100
2022-09-01T03:12:01.762Z,100
2022-09-01T03:13:01.735Z,100
2022-09-01T03:14:02.658Z,100
2022-09-01T03:15:02.482Z,100
2022-09-01T03:16:02.272Z,100
2022-09-01T03:17:02.377Z,100
2022-09-01T03:18:02.445Z,100
2022-09-01T03:19:02.260Z,100
2022-09-01T03:20:02.234Z,100
2022-09-01T03:21:02.065Z,100
2022-09-01T03:22:02.088Z,100
2022-09-01T03:23:02.043Z,100
2022-09-01T03:24:01.812Z,100
2022-09-01T03:25:01.710Z,100
2022-09-01T03:26:02.638Z,100
2022-09-01T03:27:02.437Z,100
2022-09-01T03:28:03.377Z,100
2022-09-01T03:29:02.183Z,100
2022-09-01T03:30:02.180Z,100
2022-09-01T03:31:02.282Z,100
2022-09-01T03:32:02.244Z,100
2022-09-01T03:33:02.367Z,100
2022-09-01T03:34:02.283Z,100
2022-09-01T03:35:02.058Z,100
2022-09-01T03:36:02.035Z,100
2022-09-01T03:37:01.852Z,100
2022-09-01T03:38:01.786Z,100
2022-09-01T03:39:01.635Z,100
2022-09-01T03:40:02.695Z,100
2022-09-01T03:41:01.617Z,100
2022-09-01T03:42:02.591Z,100
2022-09-01T03:43:02.446Z,100
2022-09-01T03:44:02.361Z,100
2022-09-01T03:45:02.275Z,100
2022-09-01T03:46:02.313Z,100
2022-09-01T03:47:02.460Z,100
2022-09-01T03:48:02.589Z,100
2022-09-01T03:49:02.419Z,100
2022-09-01T03:50:02.381Z,100
2022-09-01T03:51:02.265Z,100
2022-09-01T03:52:02.072Z,100
2022-09-01T03:53:02.057Z,100
2022-09-01T03:54:01.830Z,100
2022-09-01T03:55:01.881Z,100
2022-09-01T03:56:01.676Z,100
2022-09-01T03:57:03.352Z,100
2022-09-01T03:58:02.200Z,100
2022-09-01T03:59:02.144Z,100
2022-09-01T04:00:03.189Z,100
2022-09-01T04:01:02.073Z,100
2022-09-01T04:02:02.327Z,100
2022-09-01T04:03:02.309Z,100
2022-09-01T04:04:02.129Z,100
2022-09-01T04:05:08.436Z,100
2022-09-01T04:06:02.449Z,100
2022-09-01T04:07:02.262Z,100
2022-09-01T04:08:02.251Z,100
2022-09-01T04:09:02.089Z,100
2022-09-01T04:10:02.019Z,100
2022-09-01T04:11:01.955Z,100
2022-09-01T04:12:01.746Z,100
2022-09-01T04:13:01.673Z,100
2022-09-01T04:14:02.607Z,100
2022-09-01T04:15:02.437Z,100
2022-09-01T04:16:01.742Z,100
2022-09-01T04:17:01.691Z,100
2022-09-01T04:18:02.620Z,100
2022-09-01T04:19:02.450Z,100
2022-09-01T04:20:02.405Z,100
2022-09-01T04:21:02.315Z,100
2022-09-01T04:22:02.196Z,100
2022-09-01T04:23:02.120Z,100
2022-09-01T04:24:01.916Z,100
2022-09-01T04:25:01.856Z,100
2022-09-01T04:26:01.649Z,100
2022-09-01T04:27:02.890Z,100
2022-09-01T04:28:01.727Z,100
2022-09-01T04:29:01.696Z,100
2022-09-01T04:30:02.593Z,100
2022-09-01T04:31:02.503Z,100
2022-09-01T04:32:03.021Z,100
2022-09-01T04:33:01.879Z,100
2022-09-01T04:34:01.834Z,100
2022-09-01T04:35:01.642Z,100
2022-09-01T04:36:02.581Z,100
2022-09-01T04:37:02.396Z,100
2022-09-01T04:38:01.995Z,100
2022-09-01T04:39:01.799Z,100
2022-09-01T04:40:01.905Z,100
2022-09-01T04:41:01.861Z,100
2022-09-01T04:42:01.811Z,100
2022-09-01T04:43:01.624Z,100
2022-09-01T04:44:02.623Z,100
2022-09-01T04:45:11.503Z,100
2022-09-01T04:46:02.605Z,100
2022-09-01T04:47:02.593Z,100
2022-09-01T04:48:02.425Z,100
2022-09-01T04:49:02.448Z,100
2022-09-01T04:50:02.301Z,100
2022-09-01T04:51:02.268Z,100
2022-09-01T04:52:02.087Z,100
2022-09-01T04:53:01.995Z,100
2022-09-01T04:54:01.914Z,100
2022-09-01T04:55:01.687Z,100
2022-09-01T04:56:01.672Z,100
2022-09-01T04:57:02.594Z,100
2022-09-01T04:58:03.158Z,100
2022-09-01T04:59:01.607Z,100
2022-09-01T05:00:02.574Z,100
2022-09-01T05:01:02.348Z,100
2022-09-01T05:02:02.632Z,100
2022-09-01T05:03:01.590Z,100
2022-09-01T05:04:04.398Z,100
2022-09-01T05:05:02.242Z,100
2022-09-01T05:06:02.259Z,100
2022-09-01T05:07:02.206Z,100
2022-09-01T05:08:02.053Z,100
2022-09-01T05:09:02.024Z,100
2022-09-01T05:10:01.957Z,100
2022-09-01T05:11:01.942Z,100
2022-09-01T05:12:01.920Z,100
2022-09-01T05:13:01.779Z,100
2022-09-01T05:14:01.667Z,100
2022-09-01T05:15:02.394Z,100
2022-09-01T05:16:02.428Z,100
2022-09-01T05:17:02.530Z,100
2022-09-01T05:18:02.564Z,100
2022-09-01T05:19:02.386Z,100
2022-09-01T05:20:02.347Z,100
2022-09-01T05:21:02.158Z,100
2022-09-01T05:22:02.066Z,100
2022-09-01T05:23:01.979Z,100
2022-09-01T05:24:01.925Z,100
2022-09-01T05:25:01.770Z,100
2022-09-01T05:26:01.614Z,100
2022-09-01T05:27:02.591Z,100
2022-09-01T05:28:02.407Z,100
2022-09-01T05:29:02.396Z,100
2022-09-01T05:30:02.485Z,100
2022-09-01T05:31:02.441Z,100
2022-09-01T05:32:02.415Z,100
2022-09-01T05:33:02.420Z,100
2022-09-01T05:34:02.321Z,100
2022-09-01T05:35:02.212Z,100
2022-09-01T05:36:02.054Z,100
2022-09-01T05:37:01.907Z,100
2022-09-01T05:38:01.775Z,100
2022-09-01T05:39:01.597Z,100
2022-09-01T05:40:02.816Z,100
2022-09-01T05:41:01.711Z,100
2022-09-01T05:42:01.714Z,100
2022-09-01T05:43:02.642Z,100
2022-09-01T05:44:02.474Z,100
2022-09-01T05:45:02.494Z,100
2022-09-01T05:46:07.801Z,100
2022-09-01T05:47:01.889Z,100
2022-09-01T05:48:01.900Z,100
2022-09-01T05:49:01.750Z,100
2022-09-01T05:50:01.682Z,100
2022-09-01T05:51:02.622Z,100
2022-09-01T05:52:04.033Z,100
2022-09-01T05:53:03.562Z,100
2022-09-01T05:54:02.056Z,100
2022-09-01T05:55:02.525Z,100
2022-09-01T05:56:02.296Z,100
2022-09-01T05:57:34.552Z,100
2022-09-01T05:58:02.041Z,100
2022-09-01T05:59:26.994Z,100
2022-09-01T06:00:01.930Z,100
2022-09-01T06:01:01.857Z,100
2022-09-01T06:02:02.161Z,100
2022-09-01T06:03:02.797Z,100
2022-09-01T06:04:01.869Z,100
2022-09-01T06:05:01.663Z,100
2022-09-01T06:06:02.653Z,100
2022-09-01T06:07:08.882Z,100
2022-09-01T06:08:02.308Z,100
2022-09-01T06:09:02.303Z,100
2022-09-01T06:10:02.105Z,100
2022-09-01T06:11:01.996Z,100
2022-09-01T06:12:01.921Z,100
2022-09-01T06:13:01.733Z,100
2022-09-01T06:14:02.435Z,100
2022-09-01T06:15:02.294Z,100
2022-09-01T06:16:02.381Z,100
2022-09-01T06:17:02.535Z,100
2022-09-01T06:18:02.367Z,100
2022-09-01T06:19:02.356Z,100
2022-09-01T06:20:02.305Z,100
2022-09-01T06:21:02.154Z,100
2022-09-01T06:22:02.144Z,100
2022-09-01T06:23:01.975Z,100
2022-09-01T06:24:01.893Z,100
2022-09-01T06:25:03.384Z,100
2022-09-01T06:26:02.313Z,100
2022-09-01T06:27:02.154Z,100
2022-09-01T06:28:02.118Z,100
2022-09-01T06:29:01.886Z,100
2022-09-01T06:30:01.863Z,100
2022-09-01T06:31:01.883Z,100
2022-09-01T06:32:01.694Z,100
2022-09-01T06:33:01.733Z,100
2022-09-01T06:34:01.582Z,100
2022-09-01T06:35:05.435Z,100
2022-09-01T06:36:02.301Z,100
2022-09-01T06:37:02.278Z,100
2022-09-01T06:38:02.159Z,100
2022-09-01T06:39:02.088Z,100
2022-09-01T06:40:02.107Z,100
2022-09-01T06:41:02.124Z,100
2022-09-01T06:42:06.175Z,100
2022-09-01T06:43:02.119Z,100
2022-09-01T06:44:02.051Z,100
2022-09-01T06:45:01.837Z,100
2022-09-01T06:46:01.767Z,100
2022-09-01T06:47:02.126Z,100
2022-09-01T06:48:02.253Z,100
2022-09-01T06:49:02.236Z,100
2022-09-01T06:50:02.064Z,100
2022-09-01T06:52:01.933Z,100
2022-09-01T06:53:32.786Z,100
2022-09-01T06:54:02.015Z,100
2022-09-01T06:55:08.042Z,100
2022-09-01T06:56:01.906Z,100
2022-09-01T06:58:05.749Z,100
2022-09-01T06:58:06.735Z,100
2022-09-01T06:59:02.920Z,100
2022-09-01T07:00:01.860Z,100
2022-09-01T07:01:02.013Z,100
2022-09-01T07:02:05.800Z,100
2022-09-01T07:03:01.918Z,100
2022-09-01T07:04:02.511Z,100
2022-09-01T07:05:02.479Z,100
2022-09-01T07:06:03.146Z,100
2022-09-01T07:08:06.216Z,100
2022-09-01T07:09:38.689Z,100
2022-09-01T07:12:26.234Z,100
2022-09-01T07:13:06.260Z,100
2022-09-01T07:14:16.881Z,100
2022-09-01T07:16:33.255Z,100
2022-09-01T07:16:37.394Z,100
2022-09-01T07:17:24.257Z,100
2022-09-01T07:18:02.217Z,100
2022-09-01T07:19:02.034Z,100
2022-09-01T07:20:25.477Z,100
2022-09-01T07:22:08.510Z,100
2022-09-01T07:25:14.108Z,100
2022-09-01T07:27:08.431Z,100
2022-09-01T07:28:01.627Z,100
2022-09-01T07:29:04.124Z,100
2022-09-01T07:30:01.780Z,100
2022-09-01T07:31:50.112Z,100
2022-09-01T07:32:47.395Z,100
2022-09-01T07:33:44.594Z,100
2022-09-01T07:34:39.612Z,100
2022-09-01T07:35:03.297Z,100
2022-09-01T07:36:30.017Z,100
2022-09-01T07:38:49.572Z,100
2022-09-01T07:38:49.905Z,100
2022-09-01T07:39:48.921Z,100
2022-09-01T07:42:58.524Z,100
2022-09-01T07:44:02.224Z,100
2022-09-01T07:45:28.158Z,100
2022-09-01T07:46:37.630Z,100
2022-09-01T07:47:53.222Z,100
2022-09-01T07:48:01.975Z,100
2022-09-01T07:49:29.930Z,100
2022-09-01T07:50:40.136Z,100
2022-09-01T07:51:36.327Z,97
2022-09-01T07:52:02.672Z,98
2022-09-01T07:53:01.702Z,98
2022-09-01T07:54:02.613Z,97
2022-09-01T07:55:02.435Z,99
2022-09-01T07:56:02.395Z,96
2022-09-01T07:57:02.336Z,99
2022-09-01T07:58:02.136Z,92
2022-09-01T07:59:02.117Z,90
2022-09-01T08:00:01.892Z,92
2022-09-01T08:01:01.877Z,96
2022-09-01T08:02:02.312Z,91
2022-09-01T08:03:02.404Z,95
2022-09-01T08:04:02.486Z,94
2022-09-01T08:05:02.308Z,95
2022-09-01T08:06:02.389Z,92
2022-09-01T08:07:02.370Z,96
2022-09-01T08:08:02.187Z,90
2022-09-01T08:09:02.948Z,87
2022-09-01T08:10:02.320Z,93
2022-09-01T08:11:05.661Z,88
2022-09-01T08:12:03.388Z,90
2022-09-01T08:13:04.314Z,88
2022-09-01T08:14:01.888Z,87
2022-09-01T08:15:40.853Z,93
2022-09-01T08:16:18.130Z,87
2022-09-01T08:17:18.161Z,86
2022-09-01T08:18:02.376Z,86
2022-09-01T08:19:02.603Z,86
2022-09-01T08:20:03.174Z,87
2022-09-01T08:21:02.166Z,90
2022-09-01T08:22:02.096Z,92
2022-09-01T08:23:02.118Z,98
2022-09-01T08:24:02.170Z,87
2022-09-01T08:25:02.142Z,99
2022-09-01T08:26:01.983Z,88
2022-09-01T08:27:01.897Z,91
2022-09-01T08:28:01.913Z,92
2022-09-01T08:29:01.789Z,97
2022-09-01T08:30:01.693Z,89
2022-09-01T08:31:11.031Z,96
2022-09-01T08:32:02.301Z,96
2022-09-01T08:33:10.959Z,94
2022-09-01T08:34:01.919Z,100
2022-09-01T08:35:01.908Z,89
2022-09-01T08:36:01.741Z,95
2022-09-01T08:37:02.372Z,94
2022-09-01T08:38:02.271Z,97
2022-09-01T08:39:02.110Z,91
2022-09-01T08:40:04.156Z,86
2022-09-01T08:41:02.387Z,87
2022-09-01T08:42:02.445Z,84
2022-09-01T08:43:02.280Z,82
2022-09-01T08:44:02.112Z,82
2022-09-01T08:45:02.037Z,84
2022-09-01T08:46:02.076Z,87
2022-09-01T08:47:02.284Z,81
2022-09-01T08:49:24.041Z,84
2022-09-01T08:49:27.700Z,84
2022-09-01T08:50:02.484Z,77
2022-09-01T08:51:01.986Z,79
2022-09-01T08:52:01.779Z,81
2022-09-01T08:53:09.806Z,78
2022-09-01T08:54:01.717Z,77
2022-09-01T08:55:01.633Z,77
2022-09-01T08:56:02.566Z,80
2022-09-01T08:57:02.369Z,88
2022-09-01T08:58:02.496Z,86
2022-09-01T08:59:03.434Z,75
2022-09-01T09:00:01.799Z,77
2022-09-01T09:01:01.757Z,77
2022-09-01T09:02:01.818Z,74
2022-09-01T09:03:01.937Z,72
2022-09-01T09:04:01.861Z,72
2022-09-01T09:05:01.967Z,71
2022-09-01T09:06:01.980Z,72
2022-09-01T09:07:01.904Z,72
2022-09-01T09:08:08.159Z,73
2022-09-01T09:09:02.029Z,79
2022-09-01T09:10:01.961Z,73
2022-09-01T09:11:01.877Z,69
2022-09-01T09:12:04.452Z,71
2022-09-01T09:13:02.364Z,71
2022-09-01T09:14:02.261Z,68
2022-09-01T09:15:02.058Z,65
2022-09-01T09:16:08.985Z,66
2022-09-01T09:17:02.074Z,65
2022-09-01T09:18:14.197Z,68
2022-09-01T09:19:01.931Z,68
2022-09-01T09:20:01.833Z,67
2022-09-01T09:21:01.788Z,68
2022-09-01T09:22:01.949Z,66
2022-09-01T09:23:04.211Z,66
2022-09-01T09:24:02.055Z,61
2022-09-01T09:25:02.013Z,60
2022-09-01T09:26:02.297Z,65
2022-09-01T09:27:02.129Z,68
2022-09-01T09:28:02.104Z,61
2022-09-01T09:29:01.872Z,60
2022-09-01T09:30:09.705Z,59
2022-09-01T09:31:01.713Z,60
2022-09-01T09:32:02.227Z,60
2022-09-01T09:33:51.535Z,58
2022-09-01T09:34:02.573Z,64
2022-09-01T09:35:02.448Z,63
2022-09-01T09:36:02.365Z,62
2022-09-01T09:37:02.169Z,61
2022-09-01T09:38:02.060Z,60
2022-09-01T09:39:03.863Z,68
2022-09-01T09:40:01.735Z,64
2022-09-01T09:41:26.028Z,64
2022-09-01T09:42:02.292Z,63
2022-09-01T09:43:02.328Z,63
2022-09-01T09:44:02.253Z,62
2022-09-01T09:45:02.103Z,63
2022-09-01T09:46:02.237Z,64
2022-09-01T09:47:02.179Z,66
2022-09-01T09:48:02.138Z,62
2022-09-01T09:49:01.935Z,61
2022-09-01T09:50:05.241Z,63
2022-09-01T09:51:02.420Z,61
2022-09-01T09:52:02.446Z,61
2022-09-01T09:53:02.263Z,62
2022-09-01T09:54:02.234Z,62
2022-09-01T09:55:02.067Z,58
2022-09-01T09:56:01.953Z,64
2022-09-01T09:57:01.871Z,60
2022-09-01T09:58:01.650Z,60
2022-09-01T09:59:02.567Z,62
2022-09-01T10:00:02.466Z,61
2022-09-01T10:01:05.124Z,60
2022-09-01T10:02:02.833Z,61
2022-09-01T10:03:07.990Z,62
2022-09-01T10:04:02.575Z,63
2022-09-01T10:05:02.508Z,64
2022-09-01T10:06:01.790Z,62
2022-09-01T10:07:02.007Z,70
2022-09-01T10:08:02.383Z,61
2022-09-01T10:09:03.161Z,63
2022-09-01T10:10:02.013Z,62
2022-09-01T10:11:01.905Z,62
2022-09-01T10:12:01.711Z,58
2022-09-01T10:13:02.613Z,59
2022-09-01T10:14:02.486Z,56
2022-09-01T10:15:12.306Z,62
2022-09-01T10:16:05.657Z,56
2022-09-01T10:17:06.316Z,54
2022-09-01T10:18:29.379Z,54
2022-09-01T10:19:03.012Z,53
2022-09-01T10:20:01.840Z,56
2022-09-01T10:21:02.047Z,54
2022-09-01T10:22:01.783Z,57
2022-09-01T10:23:01.701Z,55
2022-09-01T10:24:21.528Z,55
2022-09-01T10:25:03.999Z,54
2022-09-01T10:26:06.475Z,53
2022-09-01T10:27:02.491Z,53
2022-09-01T10:28:01.857Z,56
2022-09-01T10:29:02.000Z,58
2022-09-01T10:30:20.205Z,59
2022-09-01T10:31:03.942Z,61
2022-09-01T10:32:36.600Z,62
2022-09-01T10:33:19.053Z,60
2022-09-01T10:34:03.075Z,67
2022-09-01T10:35:03.240Z,56
2022-09-01T10:36:06.046Z,59
2022-09-01T10:37:01.581Z,58
2022-09-01T10:38:02.726Z,55
2022-09-01T10:39:09.044Z,57
2022-09-01T10:40:02.350Z,61
2022-09-01T10:41:02.355Z,58
2022-09-01T10:42:03.068Z,54
2022-09-01T10:43:06.804Z,64
2022-09-01T10:44:02.833Z,55
2022-09-01T10:45:01.770Z,56
2022-09-01T10:46:09.320Z,54
2022-09-01T10:47:06.246Z,54
2022-09-01T10:48:02.890Z,55
2022-09-01T10:49:04.322Z,52
2022-09-01T10:50:09.724Z,53
2022-09-01T10:51:01.938Z,53
2022-09-01T10:52:11.417Z,62
2022-09-01T10:53:01.774Z,55
2022-09-01T10:54:02.932Z,59
2022-09-01T10:55:01.825Z,53
2022-09-01T10:56:04.419Z,63
2022-09-01T10:57:11.984Z,70
2022-09-01T10:59:31.426Z,61
2022-09-01T10:59:36.069Z,54
2022-09-01T11:00:03.610Z,56
2022-09-01T11:01:40.251Z,60
2022-09-01T11:02:34.617Z,59
2022-09-01T11:03:30.512Z,56
2022-09-01T11:04:02.022Z,57
2022-09-01T11:05:02.224Z,61
2022-09-01T11:06:13.922Z,61
2022-09-01T11:07:14.966Z,55
2022-09-01T11:08:15.556Z,55
2022-09-01T11:09:01.679Z,56
2022-09-01T11:10:32.642Z,53
2022-09-01T11:11:02.353Z,60
2022-09-01T11:12:02.306Z,58
2022-09-01T11:13:02.614Z,54
2022-09-01T11:14:01.899Z,54
2022-09-01T11:15:01.906Z,53
2022-09-01T11:16:01.881Z,54
2022-09-01T11:17:01.775Z,57
2022-09-01T11:18:01.771Z,55
2022-09-01T11:19:01.588Z,56
2022-09-01T11:20:02.549Z,56
2022-09-01T11:21:03.321Z,68
2022-09-01T11:22:02.837Z,61
2022-09-01T11:23:03.473Z,58
2022-09-01T11:24:05.132Z,58
2022-09-01T11:25:12.946Z,56
2022-09-01T11:26:21.552Z,53
2022-09-01T11:27:02.514Z,52
2022-09-01T11:28:02.565Z,52
2022-09-01T11:29:02.375Z,53
2022-09-01T11:30:02.362Z,57
2022-09-01T11:31:02.317Z,50
2022-09-01T11:32:02.011Z,49
2022-09-01T11:33:02.213Z,50
2022-09-01T11:34:02.649Z,52
2022-09-01T11:35:02.622Z,51
2022-09-01T11:36:03.884Z,55
2022-09-01T11:37:01.727Z,49
2022-09-01T11:38:02.476Z,49
2022-09-01T11:39:02.400Z,48
2022-09-01T11:40:02.679Z,47
2022-09-01T11:41:01.717Z,47
2022-09-01T11:42:04.820Z,48
2022-09-01T11:43:01.656Z,47
2022-09-01T11:44:03.091Z,47
2022-09-01T11:45:01.906Z,48
2022-09-01T11:46:02.023Z,51
2022-09-01T11:47:01.857Z,52
2022-09-01T11:48:02.133Z,49
2022-09-01T11:49:02.065Z,48
2022-09-01T11:50:01.867Z,47
2022-09-01T11:51:01.824Z,48
2022-09-01T11:52:01.671Z,50
2022-09-01T11:53:05.814Z,54
2022-09-01T11:54:01.712Z,59
2022-09-01T11:55:02.747Z,49
2022-09-01T11:56:01.591Z,49
2022-09-01T11:57:02.560Z,51
2022-09-01T11:58:02.370Z,48
2022-09-01T11:59:02.364Z,46
2022-09-01T12:00:02.310Z,46
2022-09-01T12:01:02.087Z,48
2022-09-01T12:02:02.039Z,47
2022-09-01T12:03:02.405Z,45
2022-09-01T12:04:01.631Z,45
2022-09-01T12:05:02.583Z,47
2022-09-01T12:06:02.387Z,46
2022-09-01T12:07:02.349Z,46
2022-09-01T12:08:02.266Z,45
2022-09-01T12:09:02.046Z,47
2022-09-01T12:10:01.976Z,45
2022-09-01T12:11:01.764Z,46
2022-09-01T12:12:01.756Z,46
2022-09-01T12:13:01.568Z,46
2022-09-01T12:14:07.705Z,45
2022-09-01T12:15:06.907Z,46
2022-09-01T12:16:18.844Z,47
2022-09-01T12:17:02.303Z,46
2022-09-01T12:18:02.476Z,48
2022-09-01T12:19:02.263Z,47
2022-09-01T12:20:02.202Z,49
2022-09-01T12:21:02.033Z,47
2022-09-01T12:22:02.285Z,51
2022-09-01T12:23:02.254Z,51
2022-09-01T12:24:02.109Z,46
2022-09-01T12:25:02.013Z,49
2022-09-01T12:26:02.006Z,49
2022-09-01T12:27:01.849Z,48
2022-09-01T12:28:01.733Z,49
2022-09-01T12:29:02.643Z,52
2022-09-01T12:30:02.494Z,53
2022-09-01T12:31:07.790Z,58
2022-09-01T12:32:01.899Z,57
2022-09-01T12:33:24.918Z,56
2022-09-01T12:34:01.813Z,51
2022-09-01T12:35:09.536Z,49
2022-09-01T12:36:02.579Z,51
2022-09-01T12:37:02.413Z,49
2022-09-01T12:38:05.479Z,48
2022-09-01T12:39:05.177Z,50
2022-09-01T12:40:02.210Z,48
2022-09-01T12:41:02.226Z,47
2022-09-01T12:42:02.073Z,47
2022-09-01T12:43:02.002Z,49
2022-09-01T12:44:01.931Z,56
2022-09-01T12:45:01.709Z,47
2022-09-01T12:46:04.816Z,49
2022-09-01T12:47:01.966Z,48
2022-09-01T12:48:01.859Z,50
2022-09-01T12:49:01.831Z,45
2022-09-01T12:50:04.012Z,45
2022-09-01T12:51:01.992Z,46
2022-09-01T12:52:02.184Z,50
2022-09-01T12:53:02.364Z,47
2022-09-01T12:54:05.306Z,49
2022-09-01T12:55:02.173Z,60
2022-09-01T12:56:02.142Z,50
2022-09-01T12:57:01.946Z,47
2022-09-01T12:58:01.963Z,53
2022-09-01T12:59:01.773Z,59
2022-09-01T13:00:01.841Z,53
2022-09-01T13:01:02.122Z,54
2022-09-01T13:02:02.042Z,47
2022-09-01T13:03:02.226Z,52
2022-09-01T13:04:02.067Z,52
2022-09-01T13:05:01.945Z,51
2022-09-01T13:06:01.927Z,47
2022-09-01T13:07:01.766Z,48
2022-09-01T13:08:01.726Z,50
2022-09-01T13:09:02.643Z,45
2022-09-01T13:10:02.451Z,49
2022-09-01T13:11:02.430Z,44
2022-09-01T13:12:07.909Z,45
2022-09-01T13:13:01.958Z,44
2022-09-01T13:14:01.883Z,44
2022-09-01T13:15:01.776Z,46
2022-09-01T13:16:02.015Z,46
2022-09-01T13:17:01.961Z,57
2022-09-01T13:18:01.880Z,48
2022-09-01T13:19:22.020Z,46
2022-09-01T13:20:02.384Z,45
2022-09-01T13:21:02.261Z,47
2022-09-01T13:22:02.240Z,53
2022-09-01T13:23:02.015Z,46
2022-09-01T13:24:02.230Z,45
2022-09-01T13:25:02.161Z,43
2022-09-01T13:26:01.949Z,44
2022-09-01T13:27:24.186Z,43
2022-09-01T13:28:02.148Z,42
2022-09-01T13:29:02.106Z,43
2022-09-01T13:30:01.965Z,43
2022-09-01T13:31:32.349Z,44
2022-09-01T13:32:21.497Z,53
2022-09-01T13:33:23.929Z,46
2022-09-01T13:34:21.570Z,48
2022-09-01T13:35:03.246Z,50
2022-09-01T13:36:42.218Z,53
2022-09-01T13:37:02.046Z,60
2022-09-01T13:38:01.976Z,59
2022-09-01T13:39:01.779Z,54
2022-09-01T13:40:02.124Z,50
2022-09-01T13:41:01.895Z,47
2022-09-01T13:42:01.844Z,49
2022-09-01T13:43:01.647Z,51
2022-09-01T13:44:02.621Z,53
2022-09-01T13:45:02.463Z,51
2022-09-01T13:46:02.488Z,53
2022-09-01T13:47:29.996Z,45
2022-09-01T13:48:17.638Z,46
2022-09-01T13:49:04.880Z,46
2022-09-01T13:50:12.136Z,46
2022-09-01T13:51:19.297Z,47
2022-09-01T13:52:02.125Z,45
2022-09-01T13:53:02.096Z,44
2022-09-01T13:54:02.667Z,44
2022-09-01T13:55:01.822Z,43
2022-09-01T13:56:01.675Z,46
2022-09-01T13:57:02.627Z,50
2022-09-01T13:58:02.440Z,45
2022-09-01T13:59:02.419Z,47
2022-09-01T14:00:02.344Z,45
2022-09-01T14:01:02.311Z,48
2022-09-01T14:02:02.208Z,52
2022-09-01T14:03:02.159Z,49
2022-09-01T14:04:01.996Z,47
2022-09-01T14:05:02.012Z,45
2022-09-01T14:06:01.987Z,47
2022-09-01T14:07:01.769Z,45
2022-09-01T14:08:01.734Z,51
2022-09-01T14:09:02.652Z,45
2022-09-01T14:10:02.471Z,44